sensor_id;sensor_type;location;lat;lon;timestamp;P1;durP1;ratioP1;P2;durP2;ratioP2
9062;SDS011;4567;42.118;24.746;2022-12-20T00:01:36;19.37;;;13.40;;
9062;SDS011;4567;42.118;24.746;2022-12-20T00:04:03;23.87;;;13.67;;
9062;SDS011;4567;42.118;24.746;2022-12-20T00:06:30;21.53;;;13.70;;
9062;SDS011;4567;42.118;24.746;2022-12-20T00:09:01;24.53;;;13.97;;
9062;SDS011;4567;42.118;24.746;2022-12-20T00:11:29;21.73;;;13.80;;
9062;SDS011;4567;42.118;24.746;2022-12-20T00:13:56;20.23;;;13.00;;
9062;SDS011;4567;42.118;24.746;2022-12-20T00:16:23;22.13;;;13.13;;
9062;SDS011;4567;42.118;24.746;2022-12-20T00:18:52;19.20;;;12.93;;
9062;SDS011;4567;42.118;24.746;2022-12-20T00:21:19;21.87;;;12.73;;
9062;SDS011;4567;42.118;24.746;2022-12-20T00:23:46;22.43;;;13.47;;
9062;SDS011;4567;42.118;24.746;2022-12-20T00:26:16;23.43;;;13.90;;
9062;SDS011;4567;42.118;24.746;2022-12-20T00:28:44;21.57;;;13.73;;
9062;SDS011;4567;42.118;24.746;2022-12-20T00:31:12;20.63;;;13.40;;
9062;SDS011;4567;42.118;24.746;2022-12-20T00:33:40;22.23;;;13.77;;
9062;SDS011;4567;42.118;24.746;2022-12-20T00:36:10;23.07;;;14.17;;
9062;SDS011;4567;42.118;24.746;2022-12-20T00:38:36;20.80;;;13.23;;
9062;SDS011;4567;42.118;24.746;2022-12-20T00:41:04;22.73;;;13.20;;
9062;SDS011;4567;42.118;24.746;2022-12-20T00:43:33;19.63;;;13.13;;
9062;SDS011;4567;42.118;24.746;2022-12-20T00:46:01;20.67;;;13.73;;
9062;SDS011;4567;42.118;24.746;2022-12-20T00:48:28;20.13;;;13.40;;
9062;SDS011;4567;42.118;24.746;2022-12-20T00:50:57;22.00;;;14.20;;
9062;SDS011;4567;42.118;24.746;2022-12-20T00:53:24;21.37;;;12.67;;
9062;SDS011;4567;42.118;24.746;2022-12-20T00:55:51;21.13;;;13.40;;
9062;SDS011;4567;42.118;24.746;2022-12-20T00:58:17;21.80;;;13.57;;
9062;SDS011;4567;42.118;24.746;2022-12-20T01:00:45;23.93;;;14.50;;
9062;SDS011;4567;42.118;24.746;2022-12-20T01:03:13;23.70;;;14.57;;
9062;SDS011;4567;42.118;24.746;2022-12-20T01:05:46;25.23;;;15.80;;
9062;SDS011;4567;42.118;24.746;2022-12-20T01:08:15;23.23;;;15.43;;
9062;SDS011;4567;42.118;24.746;2022-12-20T01:10:42;28.53;;;16.00;;
9062;SDS011;4567;42.118;24.746;2022-12-20T01:13:09;33.57;;;17.00;;
9062;SDS011;4567;42.118;24.746;2022-12-20T01:15:35;27.90;;;17.00;;
9062;SDS011;4567;42.118;24.746;2022-12-20T01:18:03;26.47;;;16.90;;
9062;SDS011;4567;42.118;24.746;2022-12-20T01:20:30;33.00;;;17.53;;
9062;SDS011;4567;42.118;24.746;2022-12-20T01:22:57;30.93;;;18.17;;
9062;SDS011;4567;42.118;24.746;2022-12-20T01:25:23;29.83;;;16.97;;
9062;SDS011;4567;42.118;24.746;2022-12-20T01:27:50;27.50;;;16.77;;
9062;SDS011;4567;42.118;24.746;2022-12-20T01:30:17;28.57;;;16.67;;
9062;SDS011;4567;42.118;24.746;2022-12-20T01:32:44;27.13;;;16.40;;
9062;SDS011;4567;42.118;24.746;2022-12-20T01:35:12;28.07;;;16.47;;
9062;SDS011;4567;42.118;24.746;2022-12-20T01:37:38;25.47;;;15.83;;
9062;SDS011;4567;42.118;24.746;2022-12-20T01:40:05;26.27;;;16.00;;
9062;SDS011;4567;42.118;24.746;2022-12-20T01:42:34;25.27;;;15.67;;
9062;SDS011;4567;42.118;24.746;2022-12-20T01:45:01;29.93;;;15.90;;
9062;SDS011;4567;42.118;24.746;2022-12-20T01:47:29;26.73;;;15.73;;
9062;SDS011;4567;42.118;24.746;2022-12-20T01:49:59;27.87;;;15.77;;
9062;SDS011;4567;42.118;24.746;2022-12-20T01:52:30;27.10;;;16.20;;
9062;SDS011;4567;42.118;24.746;2022-12-20T01:55:03;23.40;;;14.93;;
9062;SDS011;4567;42.118;24.746;2022-12-20T01:57:35;29.63;;;15.43;;
9062;SDS011;4567;42.118;24.746;2022-12-20T02:00:08;28.43;;;15.87;;
9062;SDS011;4567;42.118;24.746;2022-12-20T02:02:36;25.77;;;15.50;;
9062;SDS011;4567;42.118;24.746;2022-12-20T02:05:03;25.40;;;15.20;;
9062;SDS011;4567;42.118;24.746;2022-12-20T02:07:32;26.17;;;15.93;;
9062;SDS011;4567;42.118;24.746;2022-12-20T02:10:01;25.27;;;15.47;;
9062;SDS011;4567;42.118;24.746;2022-12-20T02:12:30;24.67;;;15.37;;
9062;SDS011;4567;42.118;24.746;2022-12-20T02:15:05;27.93;;;15.53;;
9062;SDS011;4567;42.118;24.746;2022-12-20T02:17:49;27.70;;;16.07;;
9062;SDS011;4567;42.118;24.746;2022-12-20T02:20:33;26.27;;;15.27;;
9062;SDS011;4567;42.118;24.746;2022-12-20T02:26:41;25.53;;;15.10;;
9062;SDS011;4567;42.118;24.746;2022-12-20T02:29:24;28.27;;;14.97;;
9062;SDS011;4567;42.118;24.746;2022-12-20T02:32:01;24.83;;;15.80;;
9062;SDS011;4567;42.118;24.746;2022-12-20T02:34:34;27.10;;;15.80;;
9062;SDS011;4567;42.118;24.746;2022-12-20T02:37:02;28.47;;;15.37;;
9062;SDS011;4567;42.118;24.746;2022-12-20T02:39:30;38.47;;;16.77;;
9062;SDS011;4567;42.118;24.746;2022-12-20T02:41:57;27.93;;;16.30;;
9062;SDS011;4567;42.118;24.746;2022-12-20T02:44:29;27.37;;;16.33;;
9062;SDS011;4567;42.118;24.746;2022-12-20T02:47:18;32.57;;;16.70;;
9062;SDS011;4567;42.118;24.746;2022-12-20T02:49:49;29.80;;;16.37;;
9062;SDS011;4567;42.118;24.746;2022-12-20T02:52:18;26.37;;;15.90;;
9062;SDS011;4567;42.118;24.746;2022-12-20T02:54:49;26.80;;;15.30;;
9062;SDS011;4567;42.118;24.746;2022-12-20T02:57:17;29.80;;;15.83;;
9062;SDS011;4567;42.118;24.746;2022-12-20T02:59:48;26.97;;;15.63;;
9062;SDS011;4567;42.118;24.746;2022-12-20T03:02:20;24.53;;;15.07;;
9062;SDS011;4567;42.118;24.746;2022-12-20T03:04:49;26.33;;;15.90;;
9062;SDS011;4567;42.118;24.746;2022-12-20T03:07:16;24.57;;;15.33;;
9062;SDS011;4567;42.118;24.746;2022-12-20T03:09:43;26.30;;;15.20;;
9062;SDS011;4567;42.118;24.746;2022-12-20T03:12:11;29.97;;;15.87;;
9062;SDS011;4567;42.118;24.746;2022-12-20T03:14:40;25.20;;;15.30;;
9062;SDS011;4567;42.118;24.746;2022-12-20T03:17:07;26.70;;;14.93;;
9062;SDS011;4567;42.118;24.746;2022-12-20T03:19:36;23.33;;;14.77;;
9062;SDS011;4567;42.118;24.746;2022-12-20T03:22:03;25.17;;;15.67;;
9062;SDS011;4567;42.118;24.746;2022-12-20T03:24:30;28.17;;;16.83;;
9062;SDS011;4567;42.118;24.746;2022-12-20T03:26:57;31.77;;;16.40;;
9062;SDS011;4567;42.118;24.746;2022-12-20T03:29:24;31.53;;;16.37;;
9062;SDS011;4567;42.118;24.746;2022-12-20T03:31:51;26.07;;;16.37;;
9062;SDS011;4567;42.118;24.746;2022-12-20T03:34:18;31.23;;;17.53;;
9062;SDS011;4567;42.118;24.746;2022-12-20T03:36:46;30.40;;;17.60;;
9062;SDS011;4567;42.118;24.746;2022-12-20T03:39:13;32.10;;;17.87;;
9062;SDS011;4567;42.118;24.746;2022-12-20T03:41:40;28.60;;;16.53;;
9062;SDS011;4567;42.118;24.746;2022-12-20T03:44:06;34.63;;;18.23;;
9062;SDS011;4567;42.118;24.746;2022-12-20T03:46:33;32.23;;;17.93;;
9062;SDS011;4567;42.118;24.746;2022-12-20T03:49:00;39.67;;;20.57;;
9062;SDS011;4567;42.118;24.746;2022-12-20T03:51:27;30.73;;;18.27;;
9062;SDS011;4567;42.118;24.746;2022-12-20T03:53:55;35.73;;;18.30;;
9062;SDS011;4567;42.118;24.746;2022-12-20T03:56:21;33.90;;;18.90;;
9062;SDS011;4567;42.118;24.746;2022-12-20T03:58:48;34.03;;;19.60;;
9062;SDS011;4567;42.118;24.746;2022-12-20T04:01:16;32.10;;;18.33;;
9062;SDS011;4567;42.118;24.746;2022-12-20T04:03:47;30.00;;;18.77;;
9062;SDS011;4567;42.118;24.746;2022-12-20T04:06:13;31.37;;;19.20;;
9062;SDS011;4567;42.118;24.746;2022-12-20T04:08:41;32.03;;;19.23;;
9062;SDS011;4567;42.118;24.746;2022-12-20T04:11:09;31.90;;;19.60;;
9062;SDS011;4567;42.118;24.746;2022-12-20T04:13:41;33.17;;;19.00;;
9062;SDS011;4567;42.118;24.746;2022-12-20T04:16:08;32.83;;;19.80;;
9062;SDS011;4567;42.118;24.746;2022-12-20T04:18:35;30.07;;;18.07;;
9062;SDS011;4567;42.118;24.746;2022-12-20T04:21:02;27.47;;;17.30;;
9062;SDS011;4567;42.118;24.746;2022-12-20T04:23:29;31.97;;;19.27;;
9062;SDS011;4567;42.118;24.746;2022-12-20T04:25:55;33.73;;;19.50;;
9062;SDS011;4567;42.118;24.746;2022-12-20T04:28:23;30.63;;;17.87;;
9062;SDS011;4567;42.118;24.746;2022-12-20T04:30:50;31.30;;;18.50;;
9062;SDS011;4567;42.118;24.746;2022-12-20T04:33:17;32.43;;;17.97;;
9062;SDS011;4567;42.118;24.746;2022-12-20T04:35:43;31.10;;;18.30;;
9062;SDS011;4567;42.118;24.746;2022-12-20T04:38:10;31.77;;;18.13;;
9062;SDS011;4567;42.118;24.746;2022-12-20T04:40:37;37.73;;;18.53;;
9062;SDS011;4567;42.118;24.746;2022-12-20T04:43:04;29.00;;;17.53;;
9062;SDS011;4567;42.118;24.746;2022-12-20T04:45:32;27.57;;;17.40;;
9062;SDS011;4567;42.118;24.746;2022-12-20T04:47:58;30.87;;;18.07;;
9062;SDS011;4567;42.118;24.746;2022-12-20T04:50:25;29.53;;;16.77;;
9062;SDS011;4567;42.118;24.746;2022-12-20T04:52:52;28.13;;;16.80;;
9062;SDS011;4567;42.118;24.746;2022-12-20T04:55:36;29.33;;;16.60;;
9062;SDS011;4567;42.118;24.746;2022-12-20T04:58:04;30.90;;;16.47;;
9062;SDS011;4567;42.118;24.746;2022-12-20T05:00:32;29.33;;;17.43;;
9062;SDS011;4567;42.118;24.746;2022-12-20T05:02:59;31.60;;;17.00;;
9062;SDS011;4567;42.118;24.746;2022-12-20T05:05:26;28.93;;;17.17;;
9062;SDS011;4567;42.118;24.746;2022-12-20T05:07:53;29.23;;;16.87;;
9062;SDS011;4567;42.118;24.746;2022-12-20T05:10:20;34.27;;;16.83;;
9062;SDS011;4567;42.118;24.746;2022-12-20T05:12:47;31.00;;;16.63;;
9062;SDS011;4567;42.118;24.746;2022-12-20T05:15:14;31.03;;;17.10;;
9062;SDS011;4567;42.118;24.746;2022-12-20T05:17:42;32.40;;;16.67;;
9062;SDS011;4567;42.118;24.746;2022-12-20T05:20:09;39.17;;;17.33;;
9062;SDS011;4567;42.118;24.746;2022-12-20T05:22:36;31.13;;;17.23;;
9062;SDS011;4567;42.118;24.746;2022-12-20T05:25:17;32.10;;;17.00;;
9062;SDS011;4567;42.118;24.746;2022-12-20T05:28:01;35.90;;;17.47;;
9062;SDS011;4567;42.118;24.746;2022-12-20T05:30:28;57.57;;;18.87;;
9062;SDS011;4567;42.118;24.746;2022-12-20T05:32:56;48.57;;;18.00;;
9062;SDS011;4567;42.118;24.746;2022-12-20T05:35:23;68.27;;;20.77;;
9062;SDS011;4567;42.118;24.746;2022-12-20T05:37:50;60.17;;;19.87;;
9062;SDS011;4567;42.118;24.746;2022-12-20T05:40:17;57.87;;;19.20;;
9062;SDS011;4567;42.118;24.746;2022-12-20T05:42:43;52.90;;;18.60;;
9062;SDS011;4567;42.118;24.746;2022-12-20T05:45:10;109.07;;;24.53;;
9062;SDS011;4567;42.118;24.746;2022-12-20T05:47:36;169.83;;;26.00;;
9062;SDS011;4567;42.118;24.746;2022-12-20T05:50:05;136.53;;;25.23;;
9062;SDS011;4567;42.118;24.746;2022-12-20T05:52:33;52.07;;;19.50;;
9062;SDS011;4567;42.118;24.746;2022-12-20T05:55:00;81.77;;;20.80;;
9062;SDS011;4567;42.118;24.746;2022-12-20T05:57:26;34.07;;;18.27;;
9062;SDS011;4567;42.118;24.746;2022-12-20T05:59:53;44.13;;;20.90;;
9062;SDS011;4567;42.118;24.746;2022-12-20T06:02:20;48.53;;;21.13;;
9062;SDS011;4567;42.118;24.746;2022-12-20T06:04:46;43.43;;;22.00;;
9062;SDS011;4567;42.118;24.746;2022-12-20T06:07:14;40.43;;;22.50;;
9062;SDS011;4567;42.118;24.746;2022-12-20T06:09:41;59.20;;;23.47;;
9062;SDS011;4567;42.118;24.746;2022-12-20T06:12:08;46.20;;;25.33;;
9062;SDS011;4567;42.118;24.746;2022-12-20T06:14:35;48.23;;;24.70;;
9062;SDS011;4567;42.118;24.746;2022-12-20T06:17:01;48.63;;;24.10;;
9062;SDS011;4567;42.118;24.746;2022-12-20T06:19:28;49.73;;;26.50;;
9062;SDS011;4567;42.118;24.746;2022-12-20T06:21:55;46.20;;;24.27;;
9062;SDS011;4567;42.118;24.746;2022-12-20T06:24:23;48.27;;;25.03;;
9062;SDS011;4567;42.118;24.746;2022-12-20T06:26:51;48.50;;;26.73;;
9062;SDS011;4567;42.118;24.746;2022-12-20T06:29:18;70.60;;;36.27;;
9062;SDS011;4567;42.118;24.746;2022-12-20T06:31:45;72.10;;;31.37;;
9062;SDS011;4567;42.118;24.746;2022-12-20T06:34:11;70.93;;;33.70;;
9062;SDS011;4567;42.118;24.746;2022-12-20T06:36:38;53.80;;;29.60;;
9062;SDS011;4567;42.118;24.746;2022-12-20T06:39:05;59.80;;;28.20;;
9062;SDS011;4567;42.118;24.746;2022-12-20T06:41:35;60.37;;;27.13;;
9062;SDS011;4567;42.118;24.746;2022-12-20T06:44:02;126.87;;;31.70;;
9062;SDS011;4567;42.118;24.746;2022-12-20T06:46:29;69.30;;;30.83;;
9062;SDS011;4567;42.118;24.746;2022-12-20T06:48:55;64.50;;;32.00;;
9062;SDS011;4567;42.118;24.746;2022-12-20T06:51:22;68.57;;;32.40;;
9062;SDS011;4567;42.118;24.746;2022-12-20T06:53:49;112.47;;;50.57;;
9062;SDS011;4567;42.118;24.746;2022-12-20T06:56:16;88.20;;;41.67;;
9062;SDS011;4567;42.118;24.746;2022-12-20T06:58:45;77.10;;;37.37;;
9062;SDS011;4567;42.118;24.746;2022-12-20T07:01:11;55.80;;;29.53;;
9062;SDS011;4567;42.118;24.746;2022-12-20T07:03:38;50.73;;;26.93;;
9062;SDS011;4567;42.118;24.746;2022-12-20T07:06:05;51.33;;;26.97;;
9062;SDS011;4567;42.118;24.746;2022-12-20T07:08:32;53.93;;;26.83;;
9062;SDS011;4567;42.118;24.746;2022-12-20T07:11:02;53.40;;;26.60;;
9062;SDS011;4567;42.118;24.746;2022-12-20T07:13:30;58.60;;;27.13;;
9062;SDS011;4567;42.118;24.746;2022-12-20T07:15:59;57.07;;;27.63;;
9062;SDS011;4567;42.118;24.746;2022-12-20T07:18:26;60.03;;;28.83;;
9062;SDS011;4567;42.118;24.746;2022-12-20T07:20:53;71.77;;;30.20;;
9062;SDS011;4567;42.118;24.746;2022-12-20T07:23:20;68.17;;;33.97;;
9062;SDS011;4567;42.118;24.746;2022-12-20T07:25:51;55.00;;;28.20;;
9062;SDS011;4567;42.118;24.746;2022-12-20T07:28:19;55.17;;;27.60;;
9062;SDS011;4567;42.118;24.746;2022-12-20T07:30:46;51.43;;;26.20;;
9062;SDS011;4567;42.118;24.746;2022-12-20T07:33:14;67.40;;;28.73;;
9062;SDS011;4567;42.118;24.746;2022-12-20T07:35:40;49.77;;;26.13;;
9062;SDS011;4567;42.118;24.746;2022-12-20T07:38:07;59.53;;;27.20;;
9062;SDS011;4567;42.118;24.746;2022-12-20T07:40:34;49.47;;;26.27;;
9062;SDS011;4567;42.118;24.746;2022-12-20T07:43:01;58.67;;;26.03;;
9062;SDS011;4567;42.118;24.746;2022-12-20T07:45:27;51.80;;;26.13;;
9062;SDS011;4567;42.118;24.746;2022-12-20T07:47:54;47.37;;;25.40;;
9062;SDS011;4567;42.118;24.746;2022-12-20T07:50:23;47.87;;;25.13;;
9062;SDS011;4567;42.118;24.746;2022-12-20T07:52:51;44.60;;;24.83;;
9062;SDS011;4567;42.118;24.746;2022-12-20T07:55:18;41.23;;;23.07;;
9062;SDS011;4567;42.118;24.746;2022-12-20T07:57:46;40.27;;;22.67;;
9062;SDS011;4567;42.118;24.746;2022-12-20T08:00:16;41.50;;;23.47;;
9062;SDS011;4567;42.118;24.746;2022-12-20T08:02:45;44.03;;;23.03;;
9062;SDS011;4567;42.118;24.746;2022-12-20T08:05:14;45.37;;;22.93;;
9062;SDS011;4567;42.118;24.746;2022-12-20T08:07:43;43.27;;;23.97;;
9062;SDS011;4567;42.118;24.746;2022-12-20T08:10:11;38.60;;;24.03;;
9062;SDS011;4567;42.118;24.746;2022-12-20T08:12:41;45.77;;;23.53;;
9062;SDS011;4567;42.118;24.746;2022-12-20T08:15:10;43.20;;;23.50;;
9062;SDS011;4567;42.118;24.746;2022-12-20T08:17:37;40.90;;;24.37;;
9062;SDS011;4567;42.118;24.746;2022-12-20T08:20:04;89.63;;;27.33;;
9062;SDS011;4567;42.118;24.746;2022-12-20T08:22:32;41.57;;;23.97;;
9062;SDS011;4567;42.118;24.746;2022-12-20T08:25:01;42.83;;;24.10;;
9062;SDS011;4567;42.118;24.746;2022-12-20T08:27:28;43.27;;;24.07;;
9062;SDS011;4567;42.118;24.746;2022-12-20T08:29:55;45.50;;;23.37;;
9062;SDS011;4567;42.118;24.746;2022-12-20T08:32:22;40.37;;;22.43;;
9062;SDS011;4567;42.118;24.746;2022-12-20T08:34:48;36.73;;;21.47;;
9062;SDS011;4567;42.118;24.746;2022-12-20T08:37:15;41.40;;;23.83;;
9062;SDS011;4567;42.118;24.746;2022-12-20T08:39:42;38.33;;;22.27;;
9062;SDS011;4567;42.118;24.746;2022-12-20T08:42:10;40.40;;;22.43;;
9062;SDS011;4567;42.118;24.746;2022-12-20T08:44:37;35.77;;;22.17;;
9062;SDS011;4567;42.118;24.746;2022-12-20T08:47:04;39.47;;;23.03;;
9062;SDS011;4567;42.118;24.746;2022-12-20T08:49:31;40.47;;;23.63;;
9062;SDS011;4567;42.118;24.746;2022-12-20T08:51:57;43.20;;;23.17;;
9062;SDS011;4567;42.118;24.746;2022-12-20T08:54:24;37.30;;;23.00;;
9062;SDS011;4567;42.118;24.746;2022-12-20T08:56:51;41.13;;;22.87;;
9062;SDS011;4567;42.118;24.746;2022-12-20T08:59:19;41.10;;;19.93;;
9062;SDS011;4567;42.118;24.746;2022-12-20T09:01:45;42.80;;;20.60;;
9062;SDS011;4567;42.118;24.746;2022-12-20T09:04:12;27.80;;;17.67;;
9062;SDS011;4567;42.118;24.746;2022-12-20T09:06:40;33.10;;;18.83;;
9062;SDS011;4567;42.118;24.746;2022-12-20T09:09:06;37.60;;;17.53;;
9062;SDS011;4567;42.118;24.746;2022-12-20T09:11:33;29.87;;;17.43;;
9062;SDS011;4567;42.118;24.746;2022-12-20T09:14:00;29.13;;;17.93;;
9062;SDS011;4567;42.118;24.746;2022-12-20T09:16:29;29.13;;;18.60;;
9062;SDS011;4567;42.118;24.746;2022-12-20T09:18:59;30.23;;;17.67;;
9062;SDS011;4567;42.118;24.746;2022-12-20T09:21:27;32.53;;;16.67;;
9062;SDS011;4567;42.118;24.746;2022-12-20T09:23:55;23.47;;;15.47;;
9062;SDS011;4567;42.118;24.746;2022-12-20T09:26:23;24.50;;;14.30;;
9062;SDS011;4567;42.118;24.746;2022-12-20T09:28:50;27.00;;;15.30;;
9062;SDS011;4567;42.118;24.746;2022-12-20T09:31:18;27.73;;;15.37;;
9062;SDS011;4567;42.118;24.746;2022-12-20T09:33:47;27.83;;;15.23;;
9062;SDS011;4567;42.118;24.746;2022-12-20T09:36:14;25.90;;;13.97;;
9062;SDS011;4567;42.118;24.746;2022-12-20T09:38:43;24.40;;;14.57;;
9062;SDS011;4567;42.118;24.746;2022-12-20T09:41:15;21.73;;;14.27;;
9062;SDS011;4567;42.118;24.746;2022-12-20T09:43:50;22.43;;;13.63;;
9062;SDS011;4567;42.118;24.746;2022-12-20T09:46:17;25.23;;;14.17;;
9062;SDS011;4567;42.118;24.746;2022-12-20T09:48:44;40.20;;;15.10;;
9062;SDS011;4567;42.118;24.746;2022-12-20T09:51:17;24.50;;;14.90;;
9062;SDS011;4567;42.118;24.746;2022-12-20T09:54:11;36.80;;;13.53;;
9062;SDS011;4567;42.118;24.746;2022-12-20T09:56:50;21.57;;;13.40;;
9062;SDS011;4567;42.118;24.746;2022-12-20T09:59:25;30.13;;;14.73;;
9062;SDS011;4567;42.118;24.746;2022-12-20T10:01:52;33.90;;;14.57;;
9062;SDS011;4567;42.118;24.746;2022-12-20T10:04:21;21.17;;;13.90;;
9062;SDS011;4567;42.118;24.746;2022-12-20T10:06:54;33.23;;;14.33;;
9062;SDS011;4567;42.118;24.746;2022-12-20T10:09:50;25.73;;;13.93;;
9062;SDS011;4567;42.118;24.746;2022-12-20T10:12:30;29.50;;;14.60;;
9062;SDS011;4567;42.118;24.746;2022-12-20T10:17:56;29.13;;;13.87;;
9062;SDS011;4567;42.118;24.746;2022-12-20T10:20:45;25.17;;;14.60;;
9062;SDS011;4567;42.118;24.746;2022-12-20T10:23:24;21.97;;;13.50;;
9062;SDS011;4567;42.118;24.746;2022-12-20T10:25:56;31.93;;;14.00;;
9062;SDS011;4567;42.118;24.746;2022-12-20T10:28:24;21.37;;;13.07;;
9062;SDS011;4567;42.118;24.746;2022-12-20T10:30:53;34.87;;;14.93;;
9062;SDS011;4567;42.118;24.746;2022-12-20T10:33:21;21.93;;;12.80;;
9062;SDS011;4567;42.118;24.746;2022-12-20T10:35:50;22.53;;;12.83;;
9062;SDS011;4567;42.118;24.746;2022-12-20T10:38:17;25.10;;;14.27;;
9062;SDS011;4567;42.118;24.746;2022-12-20T10:40:45;20.20;;;13.43;;
9062;SDS011;4567;42.118;24.746;2022-12-20T10:43:14;36.37;;;13.60;;
9062;SDS011;4567;42.118;24.746;2022-12-20T10:45:44;20.20;;;11.67;;
9062;SDS011;4567;42.118;24.746;2022-12-20T10:48:25;23.57;;;12.07;;
9062;SDS011;4567;42.118;24.746;2022-12-20T10:50:57;24.70;;;12.80;;
9062;SDS011;4567;42.118;24.746;2022-12-20T10:53:26;22.10;;;11.77;;
9062;SDS011;4567;42.118;24.746;2022-12-20T10:55:54;27.40;;;12.80;;
9062;SDS011;4567;42.118;24.746;2022-12-20T10:58:37;20.87;;;12.17;;
9062;SDS011;4567;42.118;24.746;2022-12-20T11:01:05;23.20;;;13.37;;
9062;SDS011;4567;42.118;24.746;2022-12-20T11:03:49;22.83;;;12.30;;
9062;SDS011;4567;42.118;24.746;2022-12-20T11:06:22;20.73;;;12.80;;
9062;SDS011;4567;42.118;24.746;2022-12-20T11:08:51;20.27;;;12.20;;
9062;SDS011;4567;42.118;24.746;2022-12-20T11:11:18;20.37;;;13.20;;
9062;SDS011;4567;42.118;24.746;2022-12-20T11:13:48;22.50;;;13.87;;
9062;SDS011;4567;42.118;24.746;2022-12-20T11:19:11;24.30;;;13.07;;
9062;SDS011;4567;42.118;24.746;2022-12-20T11:22:04;24.93;;;12.63;;
9062;SDS011;4567;42.118;24.746;2022-12-20T11:24:44;23.73;;;13.90;;
9062;SDS011;4567;42.118;24.746;2022-12-20T11:27:20;22.27;;;14.03;;
9062;SDS011;4567;42.118;24.746;2022-12-20T11:30:07;24.73;;;13.27;;
9062;SDS011;4567;42.118;24.746;2022-12-20T11:32:44;20.60;;;12.90;;
9062;SDS011;4567;42.118;24.746;2022-12-20T11:35:32;26.67;;;14.93;;
9062;SDS011;4567;42.118;24.746;2022-12-20T11:38:13;23.43;;;14.30;;
9062;SDS011;4567;42.118;24.746;2022-12-20T11:40:53;24.93;;;14.80;;
9062;SDS011;4567;42.118;24.746;2022-12-20T11:43:31;32.73;;;15.03;;
9062;SDS011;4567;42.118;24.746;2022-12-20T11:46:10;23.53;;;13.63;;
9062;SDS011;4567;42.118;24.746;2022-12-20T11:51:45;23.57;;;14.90;;
9062;SDS011;4567;42.118;24.746;2022-12-20T11:54:16;28.17;;;14.13;;
9062;SDS011;4567;42.118;24.746;2022-12-20T11:56:47;30.30;;;14.23;;
9062;SDS011;4567;42.118;24.746;2022-12-20T11:59:19;22.30;;;14.50;;
9062;SDS011;4567;42.118;24.746;2022-12-20T12:01:54;20.57;;;13.80;;
9062;SDS011;4567;42.118;24.746;2022-12-20T12:04:26;22.80;;;13.40;;
9062;SDS011;4567;42.118;24.746;2022-12-20T12:06:57;92.57;;;17.83;;
9062;SDS011;4567;42.118;24.746;2022-12-20T12:09:31;23.73;;;14.00;;
9062;SDS011;4567;42.118;24.746;2022-12-20T12:12:02;25.03;;;13.57;;
9062;SDS011;4567;42.118;24.746;2022-12-20T12:14:34;34.80;;;14.03;;
9062;SDS011;4567;42.118;24.746;2022-12-20T12:17:11;27.97;;;14.57;;
9062;SDS011;4567;42.118;24.746;2022-12-20T12:19:44;28.43;;;14.43;;
9062;SDS011;4567;42.118;24.746;2022-12-20T12:22:15;21.73;;;14.20;;
9062;SDS011;4567;42.118;24.746;2022-12-20T12:24:50;21.03;;;13.13;;
9062;SDS011;4567;42.118;24.746;2022-12-20T12:27:22;20.57;;;13.40;;
9062;SDS011;4567;42.118;24.746;2022-12-20T12:29:50;22.47;;;13.53;;
9062;SDS011;4567;42.118;24.746;2022-12-20T12:32:19;23.23;;;13.27;;
9062;SDS011;4567;42.118;24.746;2022-12-20T12:34:58;22.33;;;13.40;;
9062;SDS011;4567;42.118;24.746;2022-12-20T12:40:26;19.43;;;13.13;;
9062;SDS011;4567;42.118;24.746;2022-12-20T12:46:11;29.93;;;13.53;;
9062;SDS011;4567;42.118;24.746;2022-12-20T12:48:41;28.73;;;14.50;;
9062;SDS011;4567;42.118;24.746;2022-12-20T12:51:11;20.70;;;11.97;;
9062;SDS011;4567;42.118;24.746;2022-12-20T12:53:41;18.73;;;11.53;;
9062;SDS011;4567;42.118;24.746;2022-12-20T12:59:20;25.47;;;13.30;;
9062;SDS011;4567;42.118;24.746;2022-12-20T13:01:50;43.33;;;14.63;;
9062;SDS011;4567;42.118;24.746;2022-12-20T13:04:22;92.10;;;16.70;;
9062;SDS011;4567;42.118;24.746;2022-12-20T13:06:55;20.60;;;13.00;;
9062;SDS011;4567;42.118;24.746;2022-12-20T13:09:40;20.37;;;11.93;;
9062;SDS011;4567;42.118;24.746;2022-12-20T13:18:19;26.03;;;12.80;;
9062;SDS011;4567;42.118;24.746;2022-12-20T13:27:20;22.40;;;13.53;;
9062;SDS011;4567;42.118;24.746;2022-12-20T13:32:55;23.17;;;13.57;;
9062;SDS011;4567;42.118;24.746;2022-12-20T13:35:54;17.90;;;11.73;;
9062;SDS011;4567;42.118;24.746;2022-12-20T13:38:47;22.67;;;12.03;;
9062;SDS011;4567;42.118;24.746;2022-12-20T13:41:29;19.93;;;11.90;;
9062;SDS011;4567;42.118;24.746;2022-12-20T13:44:08;17.60;;;11.63;;
9062;SDS011;4567;42.118;24.746;2022-12-20T13:46:46;31.20;;;11.97;;
9062;SDS011;4567;42.118;24.746;2022-12-20T13:49:20;19.17;;;11.80;;
9062;SDS011;4567;42.118;24.746;2022-12-20T13:52:05;20.37;;;12.50;;
9062;SDS011;4567;42.118;24.746;2022-12-20T13:54:38;23.90;;;13.67;;
9062;SDS011;4567;42.118;24.746;2022-12-20T13:57:07;25.27;;;13.03;;
9062;SDS011;4567;42.118;24.746;2022-12-20T13:59:39;23.83;;;13.83;;
9062;SDS011;4567;42.118;24.746;2022-12-20T14:02:16;20.33;;;12.77;;
9062;SDS011;4567;42.118;24.746;2022-12-20T14:04:49;20.63;;;12.63;;
9062;SDS011;4567;42.118;24.746;2022-12-20T14:08:04;19.80;;;12.57;;
9062;SDS011;4567;42.118;24.746;2022-12-20T14:10:46;17.83;;;11.97;;
9062;SDS011;4567;42.118;24.746;2022-12-20T14:13:17;18.13;;;11.67;;
9062;SDS011;4567;42.118;24.746;2022-12-20T14:15:47;17.60;;;10.90;;
9062;SDS011;4567;42.118;24.746;2022-12-20T14:18:18;25.10;;;11.27;;
9062;SDS011;4567;42.118;24.746;2022-12-20T14:20:47;16.97;;;10.90;;
9062;SDS011;4567;42.118;24.746;2022-12-20T14:23:17;302.00;;;27.67;;
9062;SDS011;4567;42.118;24.746;2022-12-20T14:25:48;56.43;;;13.63;;
9062;SDS011;4567;42.118;24.746;2022-12-20T14:28:24;33.07;;;13.37;;
9062;SDS011;4567;42.118;24.746;2022-12-20T14:30:56;30.43;;;12.53;;
9062;SDS011;4567;42.118;24.746;2022-12-20T14:33:26;18.40;;;11.70;;
9062;SDS011;4567;42.118;24.746;2022-12-20T14:35:56;27.00;;;13.43;;
9062;SDS011;4567;42.118;24.746;2022-12-20T14:38:32;23.17;;;12.10;;
9062;SDS011;4567;42.118;24.746;2022-12-20T14:40:59;35.03;;;12.87;;
9062;SDS011;4567;42.118;24.746;2022-12-20T14:43:26;34.20;;;15.10;;
9062;SDS011;4567;42.118;24.746;2022-12-20T14:46:14;118.13;;;30.03;;
9062;SDS011;4567;42.118;24.746;2022-12-20T14:48:44;53.10;;;14.50;;
9062;SDS011;4567;42.118;24.746;2022-12-20T14:51:12;34.30;;;14.47;;
9062;SDS011;4567;42.118;24.746;2022-12-20T14:53:44;37.23;;;15.50;;
9062;SDS011;4567;42.118;24.746;2022-12-20T14:56:13;44.23;;;15.20;;
9062;SDS011;4567;42.118;24.746;2022-12-20T14:58:44;32.07;;;14.40;;
9062;SDS011;4567;42.118;24.746;2022-12-20T15:01:17;65.63;;;22.93;;
9062;SDS011;4567;42.118;24.746;2022-12-20T15:03:49;41.40;;;21.33;;
9062;SDS011;4567;42.118;24.746;2022-12-20T15:06:31;32.13;;;18.73;;
9062;SDS011;4567;42.118;24.746;2022-12-20T15:09:00;29.27;;;16.93;;
9062;SDS011;4567;42.118;24.746;2022-12-20T15:11:29;30.10;;;16.97;;
9062;SDS011;4567;42.118;24.746;2022-12-20T15:13:56;61.10;;;18.40;;
9062;SDS011;4567;42.118;24.746;2022-12-20T15:16:24;38.77;;;17.73;;
9062;SDS011;4567;42.118;24.746;2022-12-20T15:18:52;49.40;;;22.27;;
9062;SDS011;4567;42.118;24.746;2022-12-20T15:21:22;37.37;;;17.23;;
9062;SDS011;4567;42.118;24.746;2022-12-20T15:23:55;46.87;;;21.43;;
9062;SDS011;4567;42.118;24.746;2022-12-20T15:26:23;47.93;;;26.53;;
9062;SDS011;4567;42.118;24.746;2022-12-20T15:28:51;51.53;;;24.27;;